Terminal Aerodrome Forecast
Issued by NWS

Home | Current Version | Previous Version | Text Only | Print | Product List | Glossary On
Versions: 1 2 3 4 5 6 7 8 9 10 11 12 13 14 15 16 17 18 19 20 21 22 23 24 25 26 27 28 29 30 31 32 33 34 35 36
000
FTUS43 KMQT 181552 AAC
TAFSAW
TAF AMD
KSAW 181552Z 1816/1912 36014G20KT 1/2SM -DZ FG OVC003
     FM181800 36014G20KT 1SM BR VCSH OVC008
     FM182100 36015G20KT 4SM BR VCSH OVC011
     FM190100 36012KT P6SM OVC023
     FM190400 36005KT 6SM BR FEW010=

USA.gov is the U.S. government's official web portal to all federal, state and local government web resources and services.